createdAt,value
2023-03-01T00:01:08.309Z,8.18
2023-03-01T00:02:41.315Z,8.20
2023-03-01T00:04:14.435Z,8.60
2023-03-01T00:06:06.131Z,8.88
2023-03-01T00:07:39.147Z,9.37
2023-03-01T00:09:12.069Z,8.65
2023-03-01T00:10:45.044Z,8.70
2023-03-01T00:12:17.988Z,9.43
2023-03-01T00:13:53.975Z,8.63
2023-03-01T00:15:26.945Z,8.60
2023-03-01T00:16:59.899Z,8.63
2023-03-01T00:18:32.913Z,8.80
2023-03-01T00:20:08.870Z,8.05
2023-03-01T00:21:42.422Z,9.53
2023-03-01T00:23:15.301Z,8.63
2023-03-01T00:24:48.218Z,8.50
2023-03-01T00:26:21.476Z,8.57
2023-03-01T00:27:54.442Z,7.85
2023-03-01T00:29:28.837Z,8.93
2023-03-01T00:31:09.004Z,8.80
2023-03-01T00:32:42.118Z,8.20
2023-03-01T00:34:14.030Z,8.48
2023-03-01T00:35:47.107Z,8.30
2023-03-01T00:37:20.105Z,8.73
2023-03-01T00:38:53.260Z,8.43
2023-03-01T00:40:29.606Z,9.07
2023-03-01T00:42:02.519Z,8.43
2023-03-01T00:43:37.565Z,8.15
2023-03-01T00:45:14.221Z,8.30
2023-03-01T00:46:47.105Z,8.87
2023-03-01T00:48:19.212Z,8.90
2023-03-01T00:49:52.157Z,8.70
2023-03-01T00:51:37.289Z,9.25
2023-03-01T00:53:25.442Z,8.60
2023-03-01T00:54:58.836Z,8.17
2023-03-01T00:56:32.072Z,7.82
2023-03-01T00:59:38.002Z,8.30
2023-03-01T01:01:31.527Z,8.13
2023-03-01T01:03:16.727Z,8.85
2023-03-01T01:04:49.833Z,8.07
2023-03-01T01:06:23.348Z,8.88
2023-03-01T01:07:56.283Z,7.90
2023-03-01T01:09:29.278Z,8.43
2023-03-01T01:11:04.526Z,9.48
2023-03-01T01:12:38.346Z,8.90
2023-03-01T01:14:11.278Z,8.60
2023-03-01T01:15:44.178Z,8.95
2023-03-01T01:17:18.445Z,8.75
2023-03-01T01:18:50.646Z,8.50
2023-03-01T01:20:23.500Z,8.47
2023-03-01T01:21:56.421Z,7.22
2023-03-01T01:23:28.313Z,8.95
2023-03-01T01:25:02.441Z,8.35
2023-03-01T01:26:36.580Z,9.15
2023-03-01T01:28:08.512Z,8.80
2023-03-01T01:29:42.926Z,9.20
2023-03-01T01:31:15.748Z,9.27
2023-03-01T01:32:50.032Z,8.45
2023-03-01T01:34:24.039Z,8.90
2023-03-01T01:36:09.795Z,8.77
2023-03-01T01:37:42.697Z,9.17
2023-03-01T01:39:14.608Z,8.98
2023-03-01T01:40:48.664Z,8.60
2023-03-01T01:42:21.594Z,8.63
2023-03-01T01:44:14.145Z,8.63
2023-03-01T01:46:03.456Z,8.07
2023-03-01T01:47:36.668Z,8.77
2023-03-01T01:49:21.253Z,8.30
2023-03-01T01:51:00.940Z,8.57
2023-03-01T01:52:38.278Z,7.97
2023-03-01T01:54:13.634Z,9.67
2023-03-01T01:55:49.164Z,8.20
2023-03-01T01:57:27.260Z,8.63
2023-03-01T01:59:00.358Z,9.13
2023-03-01T02:00:33.524Z,8.85
2023-03-01T02:02:07.141Z,8.88
2023-03-01T02:03:43.323Z,8.50
2023-03-01T02:05:26.993Z,8.87
2023-03-01T02:07:04.829Z,8.00
2023-03-01T02:08:42.141Z,8.97
2023-03-01T02:12:06.459Z,7.73
2023-03-01T02:13:38.916Z,8.50
2023-03-01T02:15:12.747Z,9.45
2023-03-01T02:16:46.013Z,8.70
2023-03-01T02:18:20.582Z,8.55
2023-03-01T02:22:07.382Z,8.87
2023-03-01T02:23:40.929Z,9.23
2023-03-01T02:26:56.556Z,8.80
2023-03-01T02:28:33.953Z,8.20
2023-03-01T02:30:07.549Z,9.23
2023-03-01T02:31:43.550Z,8.93
2023-03-01T02:33:15.553Z,9.33
2023-03-01T02:34:48.881Z,9.50
2023-03-01T02:37:58.067Z,9.05
2023-03-01T02:39:36.143Z,8.93
2023-03-01T02:41:09.600Z,8.37
2023-03-01T02:44:19.798Z,8.50
2023-03-01T02:46:05.684Z,8.00
2023-03-01T02:47:38.587Z,9.20
2023-03-01T02:49:22.182Z,8.68
2023-03-01T02:51:06.892Z,9.13
2023-03-01T02:52:46.071Z,9.13
2023-03-01T02:54:27.037Z,9.40
2023-03-01T02:56:13.839Z,9.00
2023-03-01T02:58:06.479Z,8.80
2023-03-01T02:59:43.409Z,8.60
2023-03-01T03:01:17.113Z,8.90
2023-03-01T03:02:52.082Z,8.00
2023-03-01T03:04:24.297Z,8.33
2023-03-01T03:05:59.963Z,8.67
2023-03-01T03:07:32.839Z,8.27
2023-03-01T03:09:06.870Z,9.07
2023-03-01T03:10:43.849Z,9.63
2023-03-01T03:12:16.770Z,9.17
2023-03-01T03:13:49.745Z,9.25
2023-03-01T03:15:40.055Z,9.48
2023-03-01T03:17:13.062Z,8.17
2023-03-01T03:18:45.732Z,9.00
2023-03-01T03:20:27.995Z,8.48
2023-03-01T03:22:01.048Z,8.90
2023-03-01T03:23:34.033Z,8.20
2023-03-01T03:25:06.504Z,8.35
2023-03-01T03:26:39.574Z,9.32
2023-03-01T03:28:11.790Z,8.40
2023-03-01T03:29:44.789Z,8.60
2023-03-01T03:31:19.593Z,9.65
2023-03-01T03:32:53.328Z,9.57
2023-03-01T03:34:26.470Z,8.87
2023-03-01T03:35:58.429Z,9.52
2023-03-01T03:37:49.084Z,8.93
2023-03-01T03:39:22.275Z,8.80
2023-03-01T03:41:03.251Z,8.93
2023-03-01T03:42:36.239Z,8.83
2023-03-01T03:44:09.092Z,8.82
2023-03-01T03:45:59.067Z,8.40
2023-03-01T03:47:32.392Z,8.63
2023-03-01T03:49:05.366Z,8.73
2023-03-01T03:50:38.851Z,8.50
2023-03-01T03:54:01.142Z,9.00
2023-03-01T03:55:34.742Z,8.15
2023-03-01T03:57:07.839Z,7.83
2023-03-01T03:58:41.077Z,8.90
2023-03-01T04:00:13.976Z,7.88
2023-03-01T04:01:46.913Z,8.30
2023-03-01T04:03:21.525Z,8.68
2023-03-01T04:04:54.398Z,8.80
2023-03-01T04:06:27.463Z,8.32
2023-03-01T04:08:04.057Z,7.80
2023-03-01T04:09:37.113Z,8.40
2023-03-01T04:11:31.573Z,8.98
2023-03-01T04:13:22.291Z,8.43
2023-03-01T04:14:55.198Z,7.93
2023-03-01T04:16:28.859Z,8.50
2023-03-01T04:18:01.468Z,9.30
2023-03-01T04:19:37.165Z,8.97
2023-03-01T04:21:10.139Z,8.40
2023-03-01T04:22:43.017Z,9.55
2023-03-01T04:24:15.884Z,8.75
2023-03-01T04:25:54.472Z,9.07
2023-03-01T04:27:27.326Z,9.50
2023-03-01T04:29:00.345Z,9.38
2023-03-01T04:30:36.590Z,8.38
2023-03-01T04:32:09.636Z,9.10
2023-03-01T04:33:42.674Z,8.48
2023-03-01T04:35:16.965Z,8.95
2023-03-01T04:36:50.275Z,8.53
2023-03-01T04:38:23.714Z,8.02
2023-03-01T04:39:56.714Z,8.20
2023-03-01T04:41:29.629Z,8.32
2023-03-01T04:43:02.294Z,9.45
2023-03-01T04:44:35.241Z,9.10
2023-03-01T04:46:11.029Z,8.93
2023-03-01T04:47:46.844Z,8.80
2023-03-01T04:49:19.769Z,8.70
2023-03-01T04:51:03.223Z,8.95
2023-03-01T04:52:35.320Z,8.75
2023-03-01T04:54:09.676Z,7.93
2023-03-01T04:55:42.680Z,8.43
2023-03-01T04:57:15.560Z,8.10
2023-03-01T04:58:48.022Z,8.82
2023-03-01T05:00:36.261Z,9.15
2023-03-01T05:02:09.590Z,8.27
2023-03-01T05:05:16.704Z,8.10
2023-03-01T05:06:51.007Z,8.80
2023-03-01T05:08:23.869Z,8.70
2023-03-01T05:09:55.763Z,8.48
2023-03-01T05:11:34.732Z,8.77
2023-03-01T05:13:07.519Z,9.77
2023-03-01T05:14:40.530Z,10.07
2023-03-01T05:16:13.545Z,10.15
2023-03-01T05:17:47.154Z,8.77
2023-03-01T05:19:23.684Z,9.97
2023-03-01T05:21:10.319Z,11.53
2023-03-01T05:22:44.644Z,10.40
2023-03-01T05:24:16.556Z,8.83
2023-03-01T05:25:50.104Z,8.20
2023-03-01T05:27:23.166Z,8.17
2023-03-01T05:28:59.571Z,8.73
2023-03-01T05:30:33.680Z,8.60
2023-03-01T05:32:29.648Z,9.27
2023-03-01T05:34:26.607Z,8.13
2023-03-01T05:36:07.246Z,9.00
2023-03-01T05:37:40.279Z,9.13
2023-03-01T05:39:14.564Z,9.63
2023-03-01T05:40:49.453Z,11.70
2023-03-01T05:42:21.412Z,8.00
2023-03-01T05:43:54.343Z,8.87
2023-03-01T05:45:29.129Z,9.40
2023-03-01T05:47:02.086Z,7.90
2023-03-01T05:48:34.974Z,8.57
2023-03-01T05:50:08.303Z,8.25
2023-03-01T05:51:41.279Z,9.13
2023-03-01T05:53:15.845Z,8.98
2023-03-01T05:54:49.152Z,9.20
2023-03-01T05:56:35.213Z,8.45
2023-03-01T05:58:11.355Z,8.37
2023-03-01T05:59:44.272Z,9.77
2023-03-01T06:01:17.293Z,9.00
2023-03-01T06:02:50.232Z,9.20
2023-03-01T06:04:23.246Z,9.52
2023-03-01T06:05:57.641Z,8.68
2023-03-01T06:07:30.723Z,9.73
2023-03-01T06:09:03.685Z,8.50
2023-03-01T06:10:38.071Z,8.40
2023-03-01T06:12:13.044Z,8.47
2023-03-01T06:13:47.153Z,9.40
2023-03-01T06:15:32.581Z,8.98
2023-03-01T06:17:05.850Z,8.67
2023-03-01T06:18:38.908Z,8.93
2023-03-01T06:20:14.361Z,9.00
2023-03-01T06:21:47.549Z,8.50
2023-03-01T06:23:20.702Z,8.15
2023-03-01T06:24:53.679Z,8.68
2023-03-01T06:27:09.944Z,9.32
2023-03-01T06:28:42.859Z,8.50
2023-03-01T06:30:18.725Z,8.77
2023-03-01T06:31:51.725Z,9.40
2023-03-01T06:33:25.593Z,9.23
2023-03-01T06:34:59.507Z,8.93
2023-03-01T06:36:32.721Z,8.83
2023-03-01T06:38:20.870Z,8.90
2023-03-01T06:39:53.951Z,8.70
2023-03-01T06:41:26.990Z,9.70
2023-03-01T06:43:01.870Z,8.65
2023-03-01T06:44:34.846Z,9.77
2023-03-01T06:46:08.842Z,9.68
2023-03-01T06:47:41.828Z,8.90
2023-03-01T06:49:14.782Z,9.02
2023-03-01T06:50:47.828Z,9.30
2023-03-01T06:52:20.908Z,8.98
2023-03-01T06:53:53.887Z,8.35
2023-03-01T06:55:27.328Z,9.65
2023-03-01T06:58:34.504Z,8.80
2023-03-01T07:00:09.107Z,8.37
2023-03-01T07:01:42.092Z,9.03
2023-03-01T07:03:15.134Z,9.43
2023-03-01T07:04:48.220Z,9.38
2023-03-01T07:08:07.984Z,9.77
2023-03-01T07:09:40.908Z,9.68
2023-03-01T07:11:13.796Z,10.18
2023-03-01T07:12:47.440Z,10.45
2023-03-01T07:14:21.699Z,10.80
2023-03-01T07:15:54.747Z,10.80
2023-03-01T07:17:27.806Z,10.40
2023-03-01T07:19:00.953Z,9.75
2023-03-01T07:20:33.864Z,10.20
2023-03-01T07:22:08.672Z,9.68
2023-03-01T07:23:41.630Z,10.13
2023-03-01T07:25:14.576Z,9.77
2023-03-01T07:26:51.097Z,10.85
2023-03-01T07:28:25.145Z,9.13
2023-03-01T07:29:59.470Z,10.43
2023-03-01T07:31:32.670Z,10.07
2023-03-01T07:33:05.756Z,10.50
2023-03-01T07:34:38.756Z,9.82
2023-03-01T07:36:11.757Z,10.55
2023-03-01T07:39:43.827Z,9.63
2023-03-01T07:41:16.713Z,9.37
2023-03-01T07:42:49.632Z,9.52
2023-03-01T07:44:22.601Z,9.77
2023-03-01T07:46:09.274Z,10.52
2023-03-01T07:47:42.397Z,9.50
2023-03-01T07:49:15.444Z,9.55
2023-03-01T07:51:00.654Z,9.95
2023-03-01T07:52:33.883Z,10.37
2023-03-01T07:54:07.277Z,10.70
2023-03-01T07:57:13.395Z,9.60
2023-03-01T07:58:48.694Z,10.32
2023-03-01T08:00:23.091Z,9.40
2023-03-01T08:03:30.615Z,10.18
2023-03-01T08:06:38.198Z,10.40
2023-03-01T08:08:11.250Z,9.90
2023-03-01T08:09:44.175Z,9.80
2023-03-01T08:11:26.410Z,9.60
2023-03-01T08:12:59.377Z,10.03
2023-03-01T08:14:32.593Z,10.02
2023-03-01T08:16:07.135Z,10.07
2023-03-01T08:17:41.506Z,10.23
2023-03-01T08:19:14.679Z,10.17
2023-03-01T08:20:48.307Z,9.73
2023-03-01T08:22:21.430Z,10.17
2023-03-01T08:23:54.376Z,10.15
2023-03-01T08:25:40.347Z,9.68
2023-03-01T08:27:14.248Z,10.23
2023-03-01T08:28:48.796Z,9.63
2023-03-01T08:30:27.571Z,10.13
2023-03-01T08:32:00.780Z,9.97
2023-03-01T08:33:35.110Z,9.30
2023-03-01T08:35:08.805Z,9.57
2023-03-01T08:36:43.704Z,9.80
2023-03-01T08:38:16.662Z,10.63
2023-03-01T08:39:49.590Z,10.35
2023-03-01T08:41:34.780Z,10.15
2023-03-01T08:43:07.784Z,10.55
2023-03-01T08:44:40.696Z,9.60
2023-03-01T08:46:14.401Z,10.18
2023-03-01T08:47:47.487Z,10.57
2023-03-01T08:49:22.535Z,9.00
2023-03-01T08:50:55.498Z,9.37
2023-03-01T08:52:28.875Z,9.88
2023-03-01T08:55:34.530Z,9.32
2023-03-01T08:57:07.474Z,9.60
2023-03-01T08:58:41.196Z,11.30
2023-03-01T09:00:15.838Z,10.30
2023-03-01T09:01:48.873Z,9.82
2023-03-01T09:03:21.891Z,9.60
2023-03-01T09:04:56.250Z,9.32
2023-03-01T09:06:32.231Z,9.95
2023-03-01T09:08:05.490Z,9.20
2023-03-01T09:09:39.031Z,9.70
2023-03-01T09:12:59.797Z,9.88
2023-03-01T09:14:32.826Z,9.85
2023-03-01T09:16:07.962Z,9.18
2023-03-01T09:17:40.896Z,9.57
2023-03-01T09:19:14.276Z,10.25
2023-03-01T09:22:41.216Z,9.50
2023-03-01T09:24:16.443Z,10.00
2023-03-01T09:25:49.544Z,9.77
2023-03-01T09:27:22.452Z,9.00
2023-03-01T09:28:58.981Z,9.32
2023-03-01T09:30:31.981Z,9.60
2023-03-01T09:32:05.353Z,10.60
2023-03-01T09:35:26.462Z,9.70
2023-03-01T09:37:03.252Z,9.90
2023-03-01T09:38:36.384Z,9.07
2023-03-01T09:40:31.184Z,9.23
2023-03-01T09:42:05.651Z,9.05
2023-03-01T09:43:46.117Z,9.05
2023-03-01T09:45:29.860Z,9.10
2023-03-01T09:47:04.086Z,9.50
2023-03-01T09:48:43.687Z,9.13
2023-03-01T09:50:18.669Z,9.10
2023-03-01T09:51:59.635Z,9.25
2023-03-01T09:53:36.150Z,8.57
2023-03-01T09:55:28.951Z,9.23
2023-03-01T09:57:35.030Z,8.48
2023-03-01T09:59:23.132Z,8.25
2023-03-01T10:00:58.535Z,7.82
2023-03-01T10:02:40.828Z,9.35
2023-03-01T10:04:28.280Z,9.50
2023-03-01T10:06:06.259Z,9.75
2023-03-01T10:07:46.311Z,8.75
2023-03-01T10:09:22.440Z,9.88
2023-03-01T10:10:55.809Z,9.23
2023-03-01T10:14:13.360Z,9.50
2023-03-01T10:16:01.192Z,10.32
2023-03-01T10:17:39.420Z,8.43
2023-03-01T10:19:19.074Z,9.10
2023-03-01T10:21:02.721Z,9.15
2023-03-01T10:22:35.886Z,8.85
2023-03-01T10:24:15.194Z,9.05
2023-03-01T10:26:13.272Z,9.15
2023-03-01T10:27:51.840Z,9.45
2023-03-01T10:29:31.589Z,10.25
2023-03-01T10:31:15.227Z,9.20
2023-03-01T10:32:51.025Z,9.80
2023-03-01T10:34:32.293Z,9.05
2023-03-01T10:36:05.705Z,9.60
2023-03-01T10:39:22.861Z,8.65
2023-03-01T10:40:58.916Z,9.18
2023-03-01T10:42:35.344Z,10.00
2023-03-01T10:44:37.690Z,9.02
2023-03-01T10:46:28.812Z,9.27
2023-03-01T10:48:15.971Z,9.88
2023-03-01T10:50:01.792Z,8.68
2023-03-01T10:51:35.023Z,9.40
2023-03-01T10:53:23.427Z,8.90
2023-03-01T10:54:59.000Z,9.45
2023-03-01T10:56:49.260Z,9.63
2023-03-01T10:58:24.313Z,10.57
2023-03-01T11:00:31.154Z,8.25
2023-03-01T11:02:24.886Z,8.95
2023-03-01T11:04:14.893Z,8.73
2023-03-01T11:06:21.445Z,9.82
2023-03-01T11:07:56.090Z,9.27
2023-03-01T11:09:38.507Z,9.98
2023-03-01T11:11:38.938Z,25.50
2023-03-01T11:13:18.440Z,11.27
2023-03-01T11:14:56.370Z,14.73
2023-03-01T11:16:37.527Z,12.57
2023-03-01T11:18:26.603Z,10.98
2023-03-01T11:20:08.475Z,13.00
2023-03-01T11:21:45.310Z,8.88
2023-03-01T11:23:18.643Z,8.93
2023-03-01T11:25:08.548Z,9.68
2023-03-01T11:28:37.734Z,8.90
2023-03-01T11:30:37.229Z,9.63
2023-03-01T11:32:13.523Z,9.10
2023-03-01T11:33:50.400Z,9.13
2023-03-01T11:35:28.537Z,8.70
2023-03-01T11:37:05.196Z,9.00
2023-03-01T11:38:40.230Z,8.80
2023-03-01T11:40:35.847Z,7.97
2023-03-01T11:42:19.414Z,8.73
2023-03-01T11:46:04.085Z,8.55
2023-03-01T11:47:55.885Z,7.93
2023-03-01T11:49:58.308Z,8.18
2023-03-01T11:51:43.368Z,8.75
2023-03-01T11:53:32.545Z,7.78
2023-03-01T11:55:34.185Z,8.70
2023-03-01T11:57:43.357Z,8.10
2023-03-01T11:59:52.546Z,8.02
2023-03-01T12:01:41.799Z,8.30
2023-03-01T12:03:28.613Z,8.23
2023-03-01T12:05:31.402Z,8.70
2023-03-01T12:07:11.608Z,7.60
2023-03-01T12:08:48.926Z,8.10
2023-03-01T12:10:45.251Z,8.52
2023-03-01T12:12:37.330Z,9.05
2023-03-01T12:14:38.761Z,8.48
2023-03-01T12:16:39.093Z,8.68
2023-03-01T12:18:30.067Z,8.23
2023-03-01T12:20:15.710Z,8.35
2023-03-01T12:22:07.237Z,7.85
2023-03-01T12:24:05.457Z,7.97
2023-03-01T12:25:43.547Z,7.88
2023-03-01T12:27:38.497Z,8.15
2023-03-01T12:29:27.063Z,7.63
2023-03-01T12:32:11.408Z,7.88
2023-03-01T12:33:51.896Z,8.80
2023-03-01T12:36:03.262Z,8.45
2023-03-01T12:37:46.433Z,8.30
2023-03-01T12:39:36.818Z,7.95
2023-03-01T12:41:24.018Z,8.40
2023-03-01T12:43:08.784Z,7.82
2023-03-01T12:45:33.678Z,8.35
2023-03-01T12:47:18.590Z,8.10
2023-03-01T12:49:03.637Z,7.95
2023-03-01T12:50:42.109Z,7.50
2023-03-01T12:52:23.204Z,7.70
2023-03-01T12:53:59.077Z,8.45
2023-03-01T12:55:36.269Z,8.00
2023-03-01T12:57:16.522Z,8.25
2023-03-01T12:58:58.949Z,9.07
2023-03-01T13:00:37.297Z,8.50
2023-03-01T13:02:35.274Z,8.95
2023-03-01T13:04:20.829Z,8.55
2023-03-01T13:06:08.659Z,8.50
2023-03-01T13:07:47.526Z,8.48
2023-03-01T13:09:28.826Z,8.40
2023-03-01T13:11:13.804Z,8.02
2023-03-01T13:13:02.624Z,8.52
2023-03-01T13:14:46.659Z,8.35
2023-03-01T13:16:39.236Z,8.15
2023-03-01T13:18:33.979Z,8.25
2023-03-01T13:20:33.663Z,7.72
2023-03-01T13:22:29.494Z,7.88
2023-03-01T13:24:02.491Z,8.38
2023-03-01T13:25:42.448Z,10.15
2023-03-01T13:27:34.010Z,8.07
2023-03-01T13:29:29.047Z,7.90
2023-03-01T13:31:03.207Z,7.82
2023-03-01T13:32:44.372Z,8.27
2023-03-01T13:34:43.357Z,8.45
2023-03-01T13:37:10.008Z,7.53
2023-03-01T13:38:48.956Z,7.80
2023-03-01T13:41:04.645Z,7.70
2023-03-01T13:42:56.277Z,7.32
2023-03-01T13:44:39.799Z,8.32
2023-03-01T13:46:35.629Z,8.35
2023-03-01T13:48:17.200Z,7.38
2023-03-01T13:49:55.597Z,8.10
2023-03-01T13:51:30.114Z,7.63
2023-03-01T13:53:06.811Z,8.38
2023-03-01T13:54:41.059Z,7.40
2023-03-01T13:56:17.120Z,7.57
2023-03-01T13:57:54.717Z,7.82
2023-03-01T13:59:28.281Z,7.93
2023-03-01T14:02:37.064Z,7.95
2023-03-01T14:04:23.154Z,7.72
2023-03-01T14:06:15.259Z,8.00
2023-03-01T14:07:53.885Z,7.97
2023-03-01T14:09:33.470Z,8.10
2023-03-01T14:11:32.206Z,8.48
2023-03-01T14:13:20.103Z,7.90
2023-03-01T14:14:58.982Z,8.02
2023-03-01T14:18:46.981Z,7.57
2023-03-01T14:20:22.915Z,7.07
2023-03-01T14:22:05.254Z,7.45
2023-03-01T14:23:43.035Z,7.68
2023-03-01T14:25:33.969Z,8.15
2023-03-01T14:27:11.545Z,8.10
2023-03-01T14:28:45.068Z,7.70
2023-03-01T14:30:23.780Z,8.50
2023-03-01T14:32:10.091Z,8.48
2023-03-01T14:33:43.197Z,9.48
2023-03-01T14:35:39.877Z,8.23
2023-03-01T14:37:19.682Z,8.13
2023-03-01T14:38:52.646Z,8.35
2023-03-01T14:40:32.540Z,8.93
2023-03-01T14:42:15.314Z,8.65
2023-03-01T14:43:52.671Z,8.10
2023-03-01T14:45:32.772Z,9.27
2023-03-01T14:47:07.796Z,7.82
2023-03-01T14:48:40.849Z,8.77
2023-03-01T14:50:36.605Z,8.73
2023-03-01T14:52:22.349Z,8.02
2023-03-01T14:53:55.786Z,8.82
2023-03-01T14:57:17.625Z,8.95
2023-03-01T14:58:54.158Z,11.18
2023-03-01T15:00:30.105Z,8.85
2023-03-01T15:02:03.826Z,8.23
2023-03-01T15:03:43.043Z,8.38
2023-03-01T15:05:34.084Z,8.77
2023-03-01T15:07:08.955Z,8.77
2023-03-01T15:08:46.478Z,7.80
2023-03-01T15:10:23.368Z,8.10
2023-03-01T15:11:56.292Z,8.38
2023-03-01T15:13:33.974Z,8.57
2023-03-01T15:15:41.475Z,8.63
2023-03-01T15:17:33.807Z,7.75
2023-03-01T15:19:09.309Z,7.53
2023-03-01T15:21:07.116Z,7.97
2023-03-01T15:22:40.172Z,8.13
2023-03-01T15:24:21.785Z,7.43
2023-03-01T15:26:04.660Z,8.48
2023-03-01T15:27:37.694Z,8.23
2023-03-01T15:29:19.127Z,7.95
2023-03-01T15:30:57.673Z,8.30
2023-03-01T15:32:33.424Z,8.02
2023-03-01T15:34:13.576Z,7.82
2023-03-01T15:35:49.006Z,7.60
2023-03-01T15:37:41.875Z,7.90
2023-03-01T15:39:39.225Z,7.25
2023-03-01T15:41:26.632Z,8.18
2023-03-01T15:43:00.478Z,6.55
2023-03-01T15:44:43.277Z,7.68
2023-03-01T15:46:35.277Z,7.25
2023-03-01T15:48:19.630Z,7.90
2023-03-01T15:49:56.222Z,7.25
2023-03-01T15:51:36.793Z,8.63
2023-03-01T15:53:15.333Z,7.93
2023-03-01T15:54:48.624Z,8.70
2023-03-01T15:56:21.740Z,7.50
2023-03-01T15:58:02.223Z,7.40
2023-03-01T15:59:35.297Z,7.53
2023-03-01T16:01:29.096Z,8.57
2023-03-01T16:03:02.259Z,7.03
2023-03-01T16:04:35.289Z,7.93
2023-03-01T16:06:11.350Z,7.50
2023-03-01T16:07:44.286Z,8.10
2023-03-01T16:09:17.309Z,6.97
2023-03-01T16:11:06.811Z,8.18
2023-03-01T16:12:41.073Z,9.25
2023-03-01T16:14:14.028Z,7.72
2023-03-01T16:15:47.625Z,8.18
2023-03-01T16:17:20.569Z,8.43
2023-03-01T16:18:55.476Z,7.63
2023-03-01T16:20:32.765Z,8.38
2023-03-01T16:22:08.271Z,8.15
2023-03-01T16:23:41.436Z,8.00
2023-03-01T16:25:30.544Z,8.45
2023-03-01T16:27:03.657Z,8.57
2023-03-01T16:28:36.880Z,8.38
2023-03-01T16:30:11.180Z,9.27
2023-03-01T16:31:44.190Z,8.75
2023-03-01T16:35:08.001Z,8.25
2023-03-01T16:36:42.041Z,7.82
2023-03-01T16:38:16.349Z,8.15
2023-03-01T16:39:50.740Z,8.85
2023-03-01T16:41:25.413Z,8.80
2023-03-01T16:43:01.159Z,8.82
2023-03-01T16:44:34.154Z,8.73
2023-03-01T16:46:27.240Z,8.95
2023-03-01T16:48:00.629Z,8.23
2023-03-01T16:51:07.656Z,8.00
2023-03-01T16:52:40.850Z,8.88
2023-03-01T16:54:15.250Z,9.32
2023-03-01T16:56:08.629Z,8.07
2023-03-01T16:57:42.191Z,7.87
2023-03-01T16:59:15.476Z,8.70
2023-03-01T17:00:48.491Z,8.65
2023-03-01T17:02:21.968Z,8.43
2023-03-01T17:03:55.095Z,8.90
2023-03-01T17:05:31.058Z,8.98
2023-03-01T17:07:04.063Z,8.38
2023-03-01T17:08:37.890Z,8.77
2023-03-01T17:10:13.495Z,9.10
2023-03-01T17:11:46.592Z,8.32
2023-03-01T17:13:19.491Z,8.10
2023-03-01T17:14:52.448Z,8.90
2023-03-01T17:16:38.116Z,8.85
2023-03-01T17:18:11.614Z,9.05
2023-03-01T17:21:18.025Z,8.30
2023-03-01T17:22:52.509Z,9.15
2023-03-01T17:24:25.676Z,8.18
2023-03-01T17:26:00.287Z,9.57
2023-03-01T17:27:35.598Z,8.85
2023-03-01T17:29:08.924Z,8.82
2023-03-01T17:30:43.754Z,8.60
2023-03-01T17:32:16.818Z,9.30
2023-03-01T17:33:50.286Z,8.32
2023-03-01T17:37:11.070Z,8.80
2023-03-01T17:38:44.027Z,9.02
2023-03-01T17:40:26.106Z,8.68
2023-03-01T17:42:00.558Z,8.43
2023-03-01T17:43:34.406Z,8.68
2023-03-01T17:45:08.988Z,9.23
2023-03-01T17:46:41.875Z,8.85
2023-03-01T17:48:15.584Z,9.43
2023-03-01T17:49:48.695Z,8.73
2023-03-01T17:51:21.874Z,8.93
2023-03-01T17:52:55.619Z,8.25
2023-03-01T17:54:28.795Z,8.38
2023-03-01T17:56:03.055Z,9.20
2023-03-01T17:57:40.571Z,9.35
2023-03-01T17:59:13.664Z,9.07
2023-03-01T18:00:55.964Z,8.80
2023-03-01T18:02:29.111Z,8.40
2023-03-01T18:04:02.083Z,8.52
2023-03-01T18:05:36.586Z,9.32
2023-03-01T18:07:09.624Z,8.73
2023-03-01T18:08:46.175Z,8.65
2023-03-01T18:10:22.437Z,10.48
2023-03-01T18:11:55.386Z,10.05
2023-03-01T18:13:29.720Z,9.60
2023-03-01T18:15:06.065Z,10.35
2023-03-01T18:16:39.739Z,11.00
2023-03-01T18:18:12.750Z,9.85
2023-03-01T18:19:45.794Z,9.77
2023-03-01T18:21:26.187Z,9.82
2023-03-01T18:22:59.811Z,10.23
2023-03-01T18:24:33.248Z,10.60
2023-03-01T18:27:39.850Z,10.60
2023-03-01T18:29:14.084Z,11.43
2023-03-01T18:31:12.674Z,11.38
2023-03-01T18:34:33.052Z,11.30
2023-03-01T18:36:07.264Z,11.30
2023-03-01T18:37:40.206Z,11.23
2023-03-01T18:39:14.914Z,11.93
2023-03-01T18:40:56.945Z,11.90
2023-03-01T18:42:29.844Z,11.48
2023-03-01T18:44:03.688Z,11.52
2023-03-01T18:45:37.925Z,11.65
2023-03-01T18:47:10.828Z,11.55
2023-03-01T18:48:44.861Z,11.23
2023-03-01T18:50:33.148Z,11.57
2023-03-01T18:52:06.270Z,11.40
2023-03-01T18:53:39.211Z,11.90
2023-03-01T18:55:12.410Z,12.15
2023-03-01T18:56:45.307Z,12.70
2023-03-01T19:04:19.445Z,12.73
2023-03-01T19:05:52.274Z,11.93
2023-03-01T19:07:25.479Z,11.52
2023-03-01T19:08:58.814Z,11.73
2023-03-01T19:10:31.765Z,11.57
2023-03-01T19:12:06.164Z,11.32
2023-03-01T19:13:40.752Z,11.82
2023-03-01T19:15:16.144Z,12.43
2023-03-01T19:16:49.060Z,12.25
2023-03-01T19:18:23.291Z,13.13
2023-03-01T19:19:56.238Z,11.95
2023-03-01T19:21:31.371Z,11.73
2023-03-01T19:23:04.554Z,11.60
2023-03-01T19:24:37.440Z,11.85
2023-03-01T19:26:13.346Z,11.70
2023-03-01T19:27:46.239Z,12.18
2023-03-01T19:29:19.170Z,13.07
2023-03-01T19:30:52.089Z,12.25
2023-03-01T19:32:25.055Z,12.88
2023-03-01T19:34:10.315Z,12.38
2023-03-01T19:35:44.279Z,12.07
2023-03-01T19:37:17.327Z,12.63
2023-03-01T19:38:50.437Z,12.30
2023-03-01T19:40:23.401Z,12.93
2023-03-01T19:41:57.103Z,12.10
2023-03-01T19:43:29.998Z,12.77
2023-03-01T19:45:03.181Z,12.73
2023-03-01T19:46:36.404Z,12.82
2023-03-01T19:48:09.402Z,12.38
2023-03-01T19:49:43.712Z,12.25
2023-03-01T19:51:16.791Z,11.68
2023-03-01T19:52:49.665Z,11.98
2023-03-01T19:54:22.986Z,11.57
2023-03-01T19:57:32.092Z,11.10
2023-03-01T19:59:06.761Z,12.90
2023-03-01T20:00:39.892Z,11.95
2023-03-01T20:02:13.011Z,12.25
2023-03-01T20:03:46.465Z,13.02
2023-03-01T20:06:53.507Z,12.90
2023-03-01T20:08:27.026Z,13.52
2023-03-01T20:11:32.784Z,11.68
2023-03-01T20:13:05.634Z,12.57
2023-03-01T20:14:39.640Z,11.98
2023-03-01T20:16:13.721Z,12.05
2023-03-01T20:17:46.861Z,12.23
2023-03-01T20:19:19.822Z,11.80
2023-03-01T20:20:54.317Z,12.07
2023-03-01T20:22:27.280Z,11.70
2023-03-01T20:24:00.417Z,12.35
2023-03-01T20:25:33.430Z,12.88
2023-03-01T20:27:06.368Z,12.65
2023-03-01T20:28:39.302Z,11.95
2023-03-01T20:30:13.680Z,12.50
2023-03-01T20:31:46.612Z,11.98
2023-03-01T20:33:19.512Z,12.68
2023-03-01T20:34:54.546Z,11.90
2023-03-01T20:36:29.134Z,12.63
2023-03-01T20:38:02.056Z,11.88
2023-03-01T20:39:35.036Z,12.25
2023-03-01T20:41:09.511Z,12.30
2023-03-01T20:42:42.441Z,11.93
2023-03-01T20:44:15.396Z,11.73
2023-03-01T20:45:48.262Z,12.00
2023-03-01T20:47:22.243Z,11.63
2023-03-01T20:48:55.253Z,12.20
2023-03-01T20:50:28.288Z,12.27
2023-03-01T20:52:02.646Z,12.43
2023-03-01T20:53:35.570Z,12.05
2023-03-01T20:55:09.718Z,12.68
2023-03-01T20:56:42.659Z,12.45
2023-03-01T20:58:15.776Z,12.82
2023-03-01T20:59:48.730Z,11.88
2023-03-01T21:01:24.700Z,11.65
2023-03-01T21:02:57.775Z,11.52
2023-03-01T21:04:30.717Z,12.40
2023-03-01T21:06:06.183Z,11.98
2023-03-01T21:07:40.737Z,11.50
2023-03-01T21:09:13.794Z,12.73
2023-03-01T21:10:51.755Z,12.35
2023-03-01T21:12:24.665Z,11.75
2023-03-01T21:13:58.030Z,12.23
2023-03-01T21:15:31.057Z,12.18
2023-03-01T21:17:04.054Z,11.95
2023-03-01T21:18:37.426Z,12.05
2023-03-01T21:20:11.635Z,12.23
2023-03-01T21:21:44.621Z,11.27
2023-03-01T21:23:19.424Z,12.88
2023-03-01T21:24:52.809Z,11.63
2023-03-01T21:27:59.467Z,11.90
2023-03-01T21:29:32.452Z,11.50
2023-03-01T21:31:07.479Z,11.95
2023-03-01T21:32:40.587Z,12.52
2023-03-01T21:34:14.505Z,12.07
2023-03-01T21:35:47.467Z,12.05
2023-03-01T21:37:22.374Z,12.35
2023-03-01T21:38:57.211Z,12.10
2023-03-01T21:40:30.257Z,11.90
2023-03-01T21:42:04.660Z,10.95
2023-03-01T21:43:38.986Z,11.85
2023-03-01T21:45:12.252Z,12.75
2023-03-01T21:46:45.268Z,11.57
2023-03-01T21:48:18.276Z,11.93
2023-03-01T21:49:51.217Z,12.25
2023-03-01T21:51:29.325Z,11.88
2023-03-01T21:53:05.355Z,12.05
2023-03-01T21:54:39.686Z,12.25
2023-03-01T21:56:17.251Z,11.90
2023-03-01T21:57:50.193Z,11.82
2023-03-01T21:59:24.253Z,11.43
2023-03-01T22:00:57.642Z,11.65
2023-03-01T22:04:04.985Z,11.18
2023-03-01T22:05:37.936Z,11.98
2023-03-01T22:07:10.888Z,12.02
2023-03-01T22:08:42.802Z,12.13
2023-03-01T22:10:27.086Z,11.65
2023-03-01T22:12:02.554Z,12.27
2023-03-01T22:13:35.697Z,11.35
2023-03-01T22:15:10.002Z,11.68
2023-03-01T22:16:45.500Z,11.88
2023-03-01T22:18:18.488Z,11.15
2023-03-01T22:19:51.453Z,11.70
2023-03-01T22:21:25.033Z,11.73
2023-03-01T22:22:57.917Z,11.55
2023-03-01T22:24:31.010Z,12.27
2023-03-01T22:26:06.261Z,12.70
2023-03-01T22:27:39.381Z,11.85
2023-03-01T22:29:14.638Z,11.60
2023-03-01T22:30:47.505Z,11.77
2023-03-01T22:32:20.623Z,10.90
2023-03-01T22:33:54.523Z,11.55
2023-03-01T22:35:27.629Z,11.20